Time;durP1;ratioP1;P1;durP2;ratioP2;P2;SDS_P1;SDS_P2;PMS_P1;PMS_P2;Temp;Humidity;BMP_temperature;BMP_pressure;BME280_temperature;BME280_humidity;BME280_pressure;Samples;Min_cycle;Max_cycle;Signal;HPM_P1;HPM_P2
2022/01/01 05:00:52;;;;;;;31.17;19.30;;;11.90;99.90;;;;;;5706044;23;20501;-70
2022/01/01 05:03:19;;;;;;;28.57;18.17;;;11.90;99.90;;;;;;4933463;29;20465;-70
2022/01/01 05:05:46;;;;;;;29.10;18.50;;;11.90;99.90;;;;;;4927274;29;20473;-70
2022/01/01 05:08:13;;;;;;;34.47;20.03;;;11.90;99.90;;;;;;4932008;29;20458;-69
2022/01/01 05:10:39;;;;;;;32.55;20.65;;;11.90;99.90;;;;;;4922354;29;20502;-69
2022/01/01 05:13:06;;;;;;;30.45;18.35;;;11.90;99.90;;;;;;4897633;29;20215;-71
2022/01/01 05:15:33;;;;;;;38.80;21.10;;;11.90;99.90;;;;;;4905038;29;20295;-71
2022/01/01 05:18:01;;;;;;;46.03;19.57;;;11.90;99.90;;;;;;4915973;29;20245;-69
2022/01/01 05:20:28;;;;;;;37.53;19.90;;;11.90;99.90;;;;;;4914537;29;20462;-69
2022/01/01 05:22:55;;;;;;;30.70;19.70;;;11.90;99.90;;;;;;4916212;29;20522;-69
2022/01/01 05:25:22;;;;;;;34.37;18.70;;;11.90;99.90;;;;;;4914846;29;20474;-69
2022/01/01 05:27:48;;;;;;;32.95;19.95;;;11.90;99.90;;;;;;4915877;29;20526;-70
2022/01/01 05:30:15;;;;;;;34.40;19.37;;;12.00;99.90;;;;;;4904397;29;20230;-70
2022/01/01 05:32:42;;;;;;;36.07;19.83;;;11.90;99.90;;;;;;4915886;29;20864;-70
2022/01/01 05:35:11;;;;;;;39.50;19.57;;;11.90;99.90;;;;;;4915521;29;20470;-69
2022/01/01 05:37:37;;;;;;;34.83;19.90;;;11.90;99.90;;;;;;4915843;29;20964;-70
2022/01/01 05:40:05;;;;;;;45.17;21.67;;;11.90;99.90;;;;;;4914687;29;20541;-70
2022/01/01 05:42:31;;;;;;;35.65;20.13;;;11.90;99.90;;;;;;4916001;29;20226;-70
2022/01/01 05:44:58;;;;;;;36.70;19.00;;;11.90;99.90;;;;;;4912116;29;20207;-70
2022/01/01 05:47:25;;;;;;;31.40;19.67;;;11.90;99.90;;;;;;4900756;29;20841;-70
2022/01/01 05:49:52;;;;;;;34.13;18.33;;;11.90;99.90;;;;;;4915206;29;20596;-70
2022/01/01 05:52:20;;;;;;;29.23;18.87;;;11.90;99.90;;;;;;4915036;29;20542;-69
2022/01/01 05:54:46;;;;;;;36.10;19.57;;;11.90;99.90;;;;;;4903311;29;20949;-70
2022/01/01 05:57:13;;;;;;;34.80;19.73;;;11.90;99.90;;;;;;4904768;29;20474;-70
2022/01/01 05:59:41;;;;;;;31.30;19.00;;;11.90;99.90;;;;;;4914689;29;21114;-69
2022/01/01 06:02:08;;;;;;;35.90;19.67;;;11.90;99.90;;;;;;4915134;29;20500;-69
2022/01/01 06:04:35;;;;;;;27.80;16.33;;;11.90;99.90;;;;;;4914943;29;20574;-69
2022/01/01 06:07:02;;;;;;;35.70;19.37;;;11.90;99.90;;;;;;4913692;29;20475;-71
2022/01/01 06:09:30;;;;;;;28.27;18.20;;;12.00;99.90;;;;;;4907425;29;20566;-70
2022/01/01 06:11:57;;;;;;;31.93;16.63;;;11.90;99.90;;;;;;4913093;29;20487;-70
2022/01/01 06:14:24;;;;;;;28.67;16.13;;;11.90;99.90;;;;;;4915250;29;20467;-69
2022/01/01 06:16:50;;;;;;;28.83;17.87;;;12.00;99.90;;;;;;4914083;29;20210;-70
2022/01/01 06:19:17;;;;;;;30.43;16.77;;;12.00;99.90;;;;;;4896419;29;20868;-69
2022/01/01 06:21:44;;;;;;;27.50;15.33;;;11.90;99.90;;;;;;4900865;29;20483;-71
2022/01/01 06:24:10;;;;;;;22.50;13.60;;;11.90;99.90;;;;;;4909698;29;20574;-69
2022/01/01 06:26:38;;;;;;;28.47;14.90;;;11.90;99.90;;;;;;4910414;29;20531;-69
2022/01/01 06:29:05;;;;;;;20.50;13.55;;;11.90;99.90;;;;;;4913065;29;20826;-70
2022/01/01 06:31:32;;;;;;;29.58;14.10;;;11.90;99.90;;;;;;4914201;29;20645;-69
2022/01/01 06:33:59;;;;;;;25.25;12.77;;;11.90;99.90;;;;;;4914625;29;20594;-71
2022/01/01 06:36:25;;;;;;;22.80;14.20;;;11.90;99.90;;;;;;4913270;29;20206;-69
2022/01/01 06:38:52;;;;;;;33.10;14.68;;;11.90;99.90;;;;;;4911366;29;20955;-69
2022/01/01 06:41:19;;;;;;;22.07;12.90;;;11.90;99.90;;;;;;4914300;29;20731;-73
2022/01/01 06:43:47;;;;;;;25.10;13.90;;;11.90;99.90;;;;;;4914061;29;20467;-70
2022/01/01 06:46:14;;;;;;;24.10;12.38;;;11.90;99.90;;;;;;4914822;29;20865;-69
2022/01/01 06:48:41;;;;;;;21.93;12.60;;;11.90;99.90;;;;;;4913506;29;20210;-72
2022/01/01 06:51:07;;;;;;;21.33;11.63;;;11.90;99.90;;;;;;4914209;29;20960;-70
2022/01/01 06:53:34;;;;;;;26.02;12.63;;;11.90;99.90;;;;;;4912507;29;20846;-70
2022/01/01 06:56:05;;;;;;;22.65;13.05;;;11.90;99.90;;;;;;4914310;29;20584;-72
2022/01/01 06:58:32;;;;;;;33.38;14.48;;;11.90;99.90;;;;;;4914090;29;20202;-70
2022/01/01 07:01:00;;;;;;;22.47;12.20;;;11.90;99.90;;;;;;4913233;29;20230;-69
2022/01/01 07:03:27;;;;;;;28.08;13.85;;;11.80;99.90;;;;;;4914591;29;20515;-69
2022/01/01 07:05:53;;;;;;;30.98;14.23;;;11.90;99.90;;;;;;4910697;29;20302;-70
2022/01/01 07:08:20;;;;;;;30.20;16.10;;;11.90;99.90;;;;;;4914417;29;20314;-69
2022/01/01 07:10:47;;;;;;;28.30;14.70;;;11.80;99.90;;;;;;4904056;29;20720;-69
2022/01/01 07:13:13;;;;;;;30.17;14.05;;;11.80;99.90;;;;;;4899554;29;20467;-71
2022/01/01 07:15:40;;;;;;;26.20;14.48;;;11.80;99.90;;;;;;4913756;29;20655;-70
2022/01/01 07:18:08;;;;;;;30.83;16.65;;;11.80;99.90;;;;;;4913455;29;20211;-69
2022/01/01 07:20:35;;;;;;;31.88;15.85;;;11.80;99.90;;;;;;4913768;29;20591;-68
2022/01/01 07:23:02;;;;;;;35.97;16.52;;;11.80;99.90;;;;;;4914296;29;20209;-71
2022/01/01 07:25:29;;;;;;;31.27;16.13;;;11.80;99.90;;;;;;4914034;29;20316;-69
2022/01/01 07:27:56;;;;;;;36.65;18.17;;;11.80;99.90;;;;;;4913948;29;20226;-70
2022/01/01 07:30:23;;;;;;;36.15;17.70;;;11.80;99.90;;;;;;4908445;29;20227;-71
2022/01/01 07:32:50;;;;;;;39.78;17.17;;;11.80;99.90;;;;;;4909169;29;20243;-70
2022/01/01 07:35:21;;;;;;;39.92;18.65;;;11.80;99.90;;;;;;4913733;29;20210;-70
2022/01/01 07:37:48;;;;;;;29.08;17.95;;;11.80;99.90;;;;;;4914056;29;20586;-70
2022/01/01 07:40:17;;;;;;;44.50;20.30;;;11.80;99.90;;;;;;4913706;29;20199;-69
2022/01/01 07:42:44;;;;;;;36.92;20.65;;;11.80;99.90;;;;;;4913379;29;20274;-69
2022/01/01 07:45:12;;;;;;;40.08;20.98;;;11.80;99.90;;;;;;4910818;29;20215;-69
2022/01/01 07:47:39;;;;;;;45.67;22.25;;;11.80;99.90;;;;;;4908525;29;20205;-69
2022/01/01 07:50:07;;;;;;;45.50;23.40;;;11.80;99.90;;;;;;4917060;29;20205;-68
2022/01/01 07:52:35;;;;;;;46.65;24.23;;;11.80;99.90;;;;;;4918051;29;20302;-69
2022/01/01 07:55:02;;;;;;;42.47;24.33;;;11.80;99.90;;;;;;4910095;29;20530;-70
2022/01/01 07:57:28;;;;;;;41.97;24.10;;;11.80;99.90;;;;;;4917270;29;20832;-71
2022/01/01 07:59:55;;;;;;;43.73;24.70;;;11.90;99.90;;;;;;4916331;29;20474;-70
2022/01/01 08:02:22;;;;;;;44.90;23.40;;;11.80;99.90;;;;;;4917502;29;20505;-69
2022/01/01 08:04:48;;;;;;;46.83;25.90;;;11.80;99.90;;;;;;4917002;29;20470;-70
2022/01/01 08:07:15;;;;;;;53.75;26.05;;;11.80;99.90;;;;;;4918369;29;20659;-69
2022/01/01 08:09:43;;;;;;;42.57;23.37;;;11.80;99.90;;;;;;4917286;29;20217;-69
2022/01/01 08:12:10;;;;;;;44.33;22.92;;;11.90;99.90;;;;;;4907430;29;20495;-70
2022/01/01 08:14:37;;;;;;;46.80;24.53;;;11.90;99.90;;;;;;4906837;29;20578;-69
2022/01/01 08:17:05;;;;;;;47.88;22.85;;;11.90;99.90;;;;;;4916310;29;21216;-69
2022/01/01 08:19:33;;;;;;;45.33;23.40;;;11.90;99.90;;;;;;4917798;29;20616;-69
2022/01/01 08:22:00;;;;;;;44.60;25.30;;;11.90;99.90;;;;;;4916641;29;20478;-69
2022/01/01 08:24:26;;;;;;;41.60;23.17;;;11.90;99.90;;;;;;4909427;29;20468;-67
2022/01/01 08:26:55;;;;;;;50.10;25.90;;;11.90;99.90;;;;;;4909564;29;20462;-70
2022/01/01 08:29:22;;;;;;;47.03;25.27;;;12.00;99.90;;;;;;4917306;29;20473;-69
2022/01/01 08:31:50;;;;;;;44.43;24.43;;;12.00;99.90;;;;;;4915045;29;21062;-69
2022/01/01 08:34:18;;;;;;;50.90;25.50;;;12.00;99.90;;;;;;4917445;29;20561;-70
2022/01/01 08:36:45;;;;;;;42.80;23.30;;;12.00;99.90;;;;;;4912427;29;20463;-70
2022/01/01 08:39:11;;;;;;;51.97;27.43;;;12.00;99.90;;;;;;4898168;29;20471;-70
2022/01/01 08:41:38;;;;;;;49.60;26.63;;;12.00;99.90;;;;;;4901437;29;20482;-69
2022/01/01 08:44:06;;;;;;;54.43;26.40;;;12.00;99.90;;;;;;4915862;29;20519;-69
2022/01/01 08:46:33;;;;;;;51.43;29.00;;;12.10;99.90;;;;;;4916121;29;20840;-69
2022/01/01 08:49:02;;;;;;;52.50;27.50;;;12.10;99.90;;;;;;4916012;29;20466;-69
2022/01/01 08:51:30;;;;;;;58.47;26.40;;;12.10;99.90;;;;;;4915619;29;20501;-69
2022/01/01 08:53:57;;;;;;;54.47;28.23;;;12.10;99.90;;;;;;4915638;29;20864;-70
2022/01/01 08:56:24;;;;;;;47.63;26.07;;;12.10;99.90;;;;;;4916120;29;20905;-69
2022/01/01 08:58:50;;;;;;;62.90;27.77;;;12.10;99.90;;;;;;4915586;29;20467;-70
2022/01/01 09:01:18;;;;;;;52.57;28.70;;;12.10;99.90;;;;;;4915739;29;20897;-69
2022/01/01 09:03:45;;;;;;;53.70;27.43;;;12.20;99.90;;;;;;4916027;29;20467;-69
2022/01/01 09:06:12;;;;;;;55.67;26.80;;;12.20;99.90;;;;;;4910346;29;20466;-70
2022/01/01 09:08:41;;;;;;;64.97;29.33;;;12.20;99.90;;;;;;4915894;29;20462;-69
2022/01/01 09:11:09;;;;;;;51.13;27.20;;;12.20;99.90;;;;;;4905960;29;20530;-69
2022/01/01 09:13:41;;;;;;;52.90;26.30;;;12.20;99.90;;;;;;4911979;29;20538;-71
2022/01/01 09:16:08;;;;;;;42.27;24.63;;;12.20;99.90;;;;;;4915259;29;21046;-73
2022/01/01 09:18:36;;;;;;;50.30;27.20;;;12.20;99.90;;;;;;4907461;29;20493;-71
2022/01/01 09:21:02;;;;;;;50.20;27.80;;;12.20;99.90;;;;;;4907998;29;20525;-71
2022/01/01 09:23:29;;;;;;;49.03;25.40;;;12.20;99.90;;;;;;4916112;29;20458;-70
2022/01/01 09:25:56;;;;;;;59.97;27.67;;;12.20;99.90;;;;;;4915808;29;20521;-70
2022/01/01 09:28:22;;;;;;;41.60;24.23;;;12.30;99.90;;;;;;4916305;29;20466;-70
2022/01/01 09:30:49;;;;;;;50.90;26.83;;;12.30;99.90;;;;;;4913794;29;20565;-70
2022/01/01 09:33:16;;;;;;;50.30;27.00;;;12.30;99.90;;;;;;4915330;29;20873;-70
2022/01/01 09:35:44;;;;;;;55.80;26.33;;;12.30;99.90;;;;;;4915480;29;20470;-67
2022/01/01 09:38:10;;;;;;;50.13;26.47;;;12.40;99.90;;;;;;4915837;29;20521;-70
2022/01/01 09:40:38;;;;;;;46.70;26.10;;;12.40;99.90;;;;;;4912722;29;20561;-70
2022/01/01 09:43:05;;;;;;;45.70;25.73;;;12.40;99.90;;;;;;4906030;29;20467;-67
2022/01/01 09:45:33;;;;;;;52.20;25.80;;;12.40;99.90;;;;;;4908507;29;20575;-68
2022/01/01 09:48:03;;;;;;;50.23;25.20;;;12.40;99.90;;;;;;4905141;29;20878;-68
2022/01/01 09:50:31;;;;;;;41.80;24.30;;;12.50;99.90;;;;;;4915290;29;20466;-68
2022/01/01 09:52:59;;;;;;;45.50;24.87;;;12.50;99.90;;;;;;4915545;29;20470;-69
2022/01/01 09:55:25;;;;;;;42.50;25.43;;;12.50;99.90;;;;;;4909077;29;20988;-68
2022/01/01 09:57:52;;;;;;;59.73;32.10;;;12.50;99.90;;;;;;4916018;29;20466;-68
2022/01/01 10:00:19;;;;;;;53.57;30.87;;;12.50;99.90;;;;;;4913960;29;20466;-69
2022/01/01 10:02:46;;;;;;;46.10;27.73;;;12.50;99.90;;;;;;4914736;29;20470;-68
2022/01/01 10:05:13;;;;;;;54.43;27.10;;;12.50;99.90;;;;;;4915646;29;20463;-69
2022/01/01 10:07:39;;;;;;;53.17;29.30;;;12.60;99.90;;;;;;4915637;29;20828;-69
2022/01/01 10:10:22;;;;;;;46.87;26.67;;;12.60;99.90;;;;;;4914481;29;20522;-69
2022/01/01 10:12:50;;;;;;;51.00;27.23;;;12.60;99.90;;;;;;4914285;29;21056;-68
2022/01/01 10:15:17;;;;;;;50.00;29.00;;;12.60;99.90;;;;;;4914360;29;20470;-68
2022/01/01 10:17:46;;;;;;;52.80;28.27;;;12.60;99.90;;;;;;4913890;29;20457;-69
2022/01/01 10:20:13;;;;;;;44.47;25.63;;;12.60;99.90;;;;;;4914505;29;20470;-68
2022/01/01 10:22:40;;;;;;;54.47;28.70;;;12.70;99.90;;;;;;4914895;29;20463;-69
2022/01/01 10:27:57;;;;;;;46.80;28.47;;;12.70;99.90;;;;;;4912236;29;20486;-68
2022/01/01 10:30:30;;;;;;;47.87;28.57;;;12.60;99.90;;;;;;4901353;29;20533;-69
2022/01/01 10:33:08;;;;;;;44.87;29.00;;;12.70;99.90;;;;;;4914549;29;20483;-69
2022/01/01 10:35:37;;;;;;;50.40;27.17;;;12.70;99.90;;;;;;4914773;29;20526;-69
2022/01/01 10:38:06;;;;;;;50.00;29.10;;;12.80;99.90;;;;;;4914974;29;20470;-68
2022/01/01 10:40:33;;;;;;;50.90;28.20;;;12.80;99.90;;;;;;4906918;29;20799;-69
2022/01/01 10:43:04;;;;;;;49.77;27.67;;;12.80;99.90;;;;;;4906490;29;20486;-70
2022/01/01 10:45:32;;;;;;;46.57;26.50;;;12.80;99.90;;;;;;4908466;29;20491;-72
2022/01/01 10:48:14;;;;;;;51.50;27.63;;;12.80;99.90;;;;;;4909730;29;21282;-70
2022/01/01 10:50:42;;;;;;;46.17;25.73;;;12.80;99.90;;;;;;4911048;29;20537;-70
2022/01/01 10:53:13;;;;;;;47.87;25.83;;;12.80;99.90;;;;;;4911815;29;20518;-70
2022/01/01 10:55:44;;;;;;;48.00;27.20;;;12.80;99.90;;;;;;4908100;29;20534;-71
2022/01/01 10:58:17;;;;;;;52.80;27.67;;;12.80;99.90;;;;;;4894775;29;21226;-71
2022/01/01 11:00:44;;;;;;;48.87;27.13;;;12.80;99.90;;;;;;4910337;29;20605;-69
2022/01/01 11:03:15;;;;;;;45.87;26.83;;;12.80;99.90;;;;;;4897085;29;20463;-70
2022/01/01 11:05:42;;;;;;;47.20;29.10;;;12.80;99.90;;;;;;4905733;29;20866;-70
2022/01/01 11:08:10;;;;;;;45.23;30.30;;;12.70;99.90;;;;;;4903978;29;20470;-70
2022/01/01 11:10:38;;;;;;;50.10;26.80;;;12.70;99.90;;;;;;4907201;29;20837;-70
2022/01/01 11:13:07;;;;;;;42.97;26.37;;;12.70;99.90;;;;;;4906723;29;21161;-71
2022/01/01 11:15:35;;;;;;;44.83;27.67;;;12.70;99.90;;;;;;4905677;29;20972;-70
2022/01/01 11:18:03;;;;;;;40.07;27.37;;;12.70;99.90;;;;;;4906886;29;21052;-70
2022/01/01 11:20:33;;;;;;;49.63;29.43;;;12.70;99.90;;;;;;4895547;29;20472;-70
2022/01/01 11:23:05;;;;;;;50.80;28.90;;;12.70;99.90;;;;;;4911702;29;20530;-70
2022/01/01 11:25:33;;;;;;;44.43;27.50;;;12.70;99.90;;;;;;4895391;29;20957;-72
2022/01/01 11:28:01;;;;;;;47.33;30.13;;;12.70;99.90;;;;;;4893486;29;20486;-71
2022/01/01 11:30:30;;;;;;;47.33;27.07;;;12.70;99.90;;;;;;4894493;29;20482;-70
2022/01/01 11:33:04;;;;;;;54.20;28.80;;;12.70;99.90;;;;;;4904682;29;20854;-69
2022/01/01 11:35:34;;;;;;;52.33;27.23;;;12.70;99.90;;;;;;4901883;29;20470;-70
2022/01/01 11:38:04;;;;;;;49.27;27.47;;;12.70;99.90;;;;;;4907986;29;20510;-69
2022/01/01 11:40:40;;;;;;;45.07;25.57;;;12.80;99.90;;;;;;4909207;29;20842;-70
2022/01/01 11:43:08;;;;;;;44.90;25.90;;;12.80;99.90;;;;;;4910143;29;20517;-70
2022/01/01 11:45:46;;;;;;;48.50;26.33;;;12.80;99.90;;;;;;4898683;29;20988;-68
2022/01/01 11:48:36;;;;;;;41.90;23.20;;;12.80;99.90;;;;;;4908162;29;20814;-70
2022/01/01 11:51:32;;;;;;;43.40;24.53;;;12.80;99.90;;;;;;4897834;29;20494;-69
2022/01/01 11:54:25;;;;;;;35.17;23.60;;;12.90;99.90;;;;;;4908943;29;20477;-69
2022/01/01 11:57:12;;;;;;;41.20;23.27;;;12.90;99.90;;;;;;4910912;29;20462;-70
2022/01/01 11:59:46;;;;;;;38.70;23.90;;;12.90;99.90;;;;;;4906090;29;20466;-69
2022/01/01 12:02:30;;;;;;;38.60;24.40;;;12.90;99.90;;;;;;4910178;29;20493;-69
2022/01/01 12:05:09;;;;;;;34.50;22.90;;;12.90;99.90;;;;;;4911732;29;20474;-70
2022/01/01 12:07:44;;;;;;;38.10;23.53;;;12.90;99.90;;;;;;4902261;29;20493;-71
2022/01/01 12:10:30;;;;;;;37.50;23.60;;;12.90;99.90;;;;;;4901695;29;20466;-69
2022/01/01 12:12:58;;;;;;;33.17;22.20;;;12.90;99.90;;;;;;4901539;29;20494;-70
2022/01/01 12:15:36;;;;;;;38.70;22.40;;;12.90;99.90;;;;;;4903269;29;20847;-70
2022/01/01 12:18:05;;;;;;;38.33;23.73;;;12.90;99.90;;;;;;4905850;29;20466;-70
2022/01/01 12:20:36;;;;;;;35.10;19.73;;;12.90;99.90;;;;;;4909958;29;20466;-69
2022/01/01 12:23:05;;;;;;;34.50;19.97;;;12.90;99.90;;;;;;4911016;29;20463;-69
2022/01/01 12:25:33;;;;;;;31.30;20.47;;;13.00;99.90;;;;;;4909802;29;20478;-69
2022/01/01 12:28:03;;;;;;;32.40;20.80;;;13.00;99.90;;;;;;4899547;29;20576;-69
2022/01/01 12:30:36;;;;;;;34.67;22.53;;;13.00;99.90;;;;;;4895597;29;21027;-69
2022/01/01 12:33:03;;;;;;;35.73;22.63;;;13.00;99.90;;;;;;4899465;29;20990;-69
2022/01/01 12:35:43;;;;;;;26.13;20.47;;;13.00;99.90;;;;;;4916869;29;20474;-70
2022/01/01 12:38:11;;;;;;;33.77;21.90;;;13.00;99.90;;;;;;4917049;29;20481;-69
2022/01/01 12:40:55;;;;;;;33.53;21.50;;;13.00;99.90;;;;;;4915677;29;20482;-69
2022/01/01 12:43:22;;;;;;;38.00;24.50;;;13.00;99.90;;;;;;4916804;29;20545;-69
2022/01/01 12:45:50;;;;;;;33.00;21.83;;;12.90;99.90;;;;;;4916607;29;20529;-71
2022/01/01 12:48:18;;;;;;;37.33;21.93;;;12.90;99.90;;;;;;4916345;29;20462;-71
2022/01/01 12:50:46;;;;;;;36.93;22.33;;;12.90;99.90;;;;;;4915602;29;20979;-71
2022/01/01 12:53:13;;;;;;;31.73;20.40;;;12.90;99.90;;;;;;4914528;29;20848;-71
2022/01/01 12:55:40;;;;;;;35.80;20.80;;;12.90;99.90;;;;;;4903518;29;20470;-70
2022/01/01 12:58:08;;;;;;;30.60;20.53;;;12.90;99.90;;;;;;4911617;29;20521;-71
2022/01/01 13:00:38;;;;;;;35.43;20.77;;;12.90;99.90;;;;;;4913496;29;20509;-70
2022/01/01 13:03:05;;;;;;;45.67;21.47;;;12.90;99.90;;;;;;4908780;29;20467;-70
2022/01/01 13:05:32;;;;;;;35.07;21.93;;;12.90;99.90;;;;;;4912421;29;20498;-70
2022/01/01 13:08:04;;;;;;;34.60;20.23;;;12.90;99.90;;;;;;4916323;29;20466;-71
2022/01/01 13:10:33;;;;;;;35.60;20.60;;;12.90;99.90;;;;;;4915962;29;20466;-70
2022/01/01 13:13:00;;;;;;;34.27;22.40;;;12.90;99.90;;;;;;4916381;29;20490;-71
2022/01/01 13:15:27;;;;;;;34.37;22.10;;;12.90;99.90;;;;;;4916028;29;20546;-71
2022/01/01 13:17:54;;;;;;;42.23;20.70;;;12.90;99.90;;;;;;4915273;29;20474;-71
2022/01/01 13:20:20;;;;;;;36.97;21.53;;;12.90;99.90;;;;;;4914930;29;20877;-70
2022/01/01 13:22:47;;;;;;;32.40;20.90;;;12.90;99.90;;;;;;4911036;29;20470;-72
2022/01/01 13:25:15;;;;;;;33.23;20.73;;;12.90;99.90;;;;;;4914930;29;20513;-71
2022/01/01 13:27:47;;;;;;;31.83;20.40;;;12.90;99.90;;;;;;4916651;29;20878;-71
2022/01/01 13:30:14;;;;;;;28.63;18.23;;;12.90;99.90;;;;;;4915472;29;20478;-71
2022/01/01 13:32:41;;;;;;;32.47;19.63;;;12.90;99.90;;;;;;4907539;29;20525;-69
2022/01/01 13:35:08;;;;;;;34.40;18.83;;;12.90;99.90;;;;;;4915698;29;20466;-71
2022/01/01 13:37:35;;;;;;;30.50;19.40;;;12.90;99.90;;;;;;4915753;29;20474;-70
2022/01/01 13:40:03;;;;;;;28.23;18.97;;;12.90;99.90;;;;;;4915488;29;20889;-71
2022/01/01 13:42:31;;;;;;;31.00;18.50;;;12.90;99.90;;;;;;4904900;29;20494;-71
2022/01/01 13:45:04;;;;;;;26.40;17.83;;;12.90;99.90;;;;;;4908613;29;20541;-71
2022/01/01 13:47:33;;;;;;;33.47;19.33;;;12.80;99.90;;;;;;4913877;29;20925;-71
2022/01/01 13:50:11;;;;;;;27.67;18.30;;;12.80;99.90;;;;;;4914919;29;20553;-71
2022/01/01 13:52:38;;;;;;;26.30;16.40;;;12.80;99.90;;;;;;4915565;29;20482;-71
2022/01/01 13:55:08;;;;;;;25.80;17.67;;;12.80;99.90;;;;;;4915204;29;20533;-71
2022/01/01 13:57:39;;;;;;;29.40;17.87;;;12.80;99.90;;;;;;4915769;29;20494;-69
2022/01/01 14:00:08;;;;;;;30.90;17.43;;;12.80;99.90;;;;;;4914381;29;20566;-70
2022/01/01 14:02:36;;;;;;;25.40;16.90;;;12.70;99.90;;;;;;4917374;29;20494;-71
2022/01/01 14:05:04;;;;;;;33.63;19.37;;;12.80;99.90;;;;;;4916600;29;20473;-69
2022/01/01 14:07:31;;;;;;;29.03;18.17;;;12.80;99.90;;;;;;4912608;29;20473;-70
2022/01/01 14:10:03;;;;;;;25.20;16.60;;;12.80;99.90;;;;;;4913268;29;20477;-69
2022/01/01 14:12:31;;;;;;;29.40;16.87;;;12.70;99.90;;;;;;4899257;29;20487;-68
2022/01/01 14:15:04;;;;;;;24.43;16.87;;;12.80;99.90;;;;;;4914801;29;20924;-68
2022/01/01 14:17:49;;;;;;;23.30;15.80;;;12.80;99.90;;;;;;4906987;29;20548;-69
2022/01/01 14:20:20;;;;;;;30.90;19.13;;;12.80;99.90;;;;;;4914057;29;20549;-68
2022/01/01 14:22:46;;;;;;;33.87;20.30;;;12.80;99.90;;;;;;4915648;29;20525;-69
2022/01/01 14:25:14;;;;;;;28.00;17.80;;;12.70;99.90;;;;;;4910929;29;20463;-70
2022/01/01 14:27:41;;;;;;;38.57;18.90;;;12.70;99.90;;;;;;4915466;29;20466;-70
2022/01/01 14:30:10;;;;;;;28.87;18.07;;;12.70;99.90;;;;;;4909256;29;20841;-69
2022/01/01 14:32:38;;;;;;;31.17;17.77;;;12.70;99.90;;;;;;4909139;29;20499;-69
2022/01/01 14:35:05;;;;;;;34.63;18.90;;;12.70;99.90;;;;;;4903762;29;20463;-70
2022/01/01 14:37:33;;;;;;;29.40;17.77;;;12.70;99.90;;;;;;4915137;29;20475;-70
2022/01/01 14:40:00;;;;;;;32.73;19.23;;;12.70;99.90;;;;;;4910319;29;20490;-72
2022/01/01 14:42:27;;;;;;;33.93;17.93;;;12.70;99.90;;;;;;4904641;29;20574;-70
2022/01/01 14:44:53;;;;;;;33.77;19.27;;;12.70;99.90;;;;;;4901128;29;20473;-70
2022/01/01 14:47:28;;;;;;;29.40;19.20;;;12.70;99.90;;;;;;4913696;29;20481;-67
2022/01/01 14:49:58;;;;;;;40.40;19.57;;;12.70;99.90;;;;;;4913332;29;20473;-69
2022/01/01 14:52:37;;;;;;;32.37;19.70;;;12.60;99.90;;;;;;4897997;29;20496;-68
2022/01/01 14:55:08;;;;;;;32.27;19.27;;;12.70;99.90;;;;;;4912938;29;20470;-70
2022/01/01 14:57:40;;;;;;;28.67;17.97;;;12.70;99.90;;;;;;4913458;29;20818;-69
2022/01/01 15:00:09;;;;;;;32.63;19.33;;;12.60;99.90;;;;;;4899305;29;20463;-70
2022/01/01 15:02:38;;;;;;;29.67;19.07;;;12.70;99.90;;;;;;4913302;29;20960;-70
2022/01/01 15:05:07;;;;;;;36.70;20.97;;;12.60;99.90;;;;;;4914222;29;20856;-68
2022/01/01 15:07:35;;;;;;;36.50;18.53;;;12.70;99.90;;;;;;4905614;29;20553;-70
2022/01/01 15:10:04;;;;;;;28.80;18.67;;;12.60;99.90;;;;;;4904337;29;20471;-70
2022/01/01 15:12:30;;;;;;;30.47;17.13;;;12.60;99.90;;;;;;4913769;29;20493;-69
2022/01/01 15:14:57;;;;;;;37.93;19.40;;;12.60;99.90;;;;;;4913970;29;20534;-69
2022/01/01 15:17:26;;;;;;;34.47;18.90;;;12.60;99.90;;;;;;4911139;29;20475;-71
2022/01/01 15:19:54;;;;;;;44.63;19.73;;;12.60;99.90;;;;;;4914190;29;20478;-70
2022/01/01 15:22:27;;;;;;;29.30;18.73;;;12.60;99.90;;;;;;4910011;29;20498;-70
2022/01/01 15:24:56;;;;;;;24.40;18.30;;;12.60;99.90;;;;;;4913398;29;20466;-70
2022/01/01 15:27:25;;;;;;;27.53;17.27;;;12.60;99.90;;;;;;4906092;29;20473;-70
2022/01/01 15:29:56;;;;;;;26.90;16.23;;;12.60;99.90;;;;;;4906551;29;20542;-69
2022/01/01 15:35:24;;;;;;;28.33;16.10;;;12.50;99.90;;;;;;4905077;29;20453;-70
2022/01/01 15:37:57;;;;;;;28.27;16.20;;;12.50;99.90;;;;;;4899820;29;20463;-70
2022/01/01 15:40:26;;;;;;;22.97;15.53;;;12.50;99.90;;;;;;4895335;29;20479;-70
2022/01/01 15:42:53;;;;;;;28.27;15.33;;;12.40;99.90;;;;;;4911957;29;21007;-71
2022/01/01 15:45:20;;;;;;;26.97;16.20;;;12.40;99.90;;;;;;4910744;29;20979;-69
2022/01/01 15:47:47;;;;;;;29.83;16.43;;;12.40;99.90;;;;;;4913631;29;20470;-70
2022/01/01 15:50:15;;;;;;;31.57;16.40;;;12.40;99.90;;;;;;4913288;29;20470;-71
2022/01/01 15:52:43;;;;;;;23.30;15.07;;;12.40;99.90;;;;;;4914008;29;20498;-69
2022/01/01 15:55:11;;;;;;;28.77;16.13;;;12.40;99.90;;;;;;4913449;29;20462;-70
2022/01/01 15:57:51;;;;;;;26.70;14.97;;;12.40;99.90;;;;;;4913881;29;21191;-70
2022/01/01 16:00:22;;;;;;;25.57;15.33;;;12.40;99.90;;;;;;4913417;29;21005;-70
2022/01/01 16:03:06;;;;;;;21.50;15.13;;;12.40;99.90;;;;;;4913804;29;20545;-70
2022/01/01 16:05:41;;;;;;;25.23;15.80;;;12.40;99.90;;;;;;4913102;29;20998;-70
2022/01/01 16:08:14;;;;;;;22.27;14.40;;;12.50;99.90;;;;;;4914365;29;20556;-70
2022/01/01 16:10:46;;;;;;;21.57;14.00;;;12.50;99.90;;;;;;4914145;29;20498;-70
2022/01/01 16:13:13;;;;;;;20.07;15.07;;;12.50;99.90;;;;;;4913128;29;20497;-69
2022/01/01 16:15:40;;;;;;;22.07;14.37;;;12.40;99.90;;;;;;4916636;29;20605;-70
2022/01/01 16:18:12;;;;;;;17.50;13.93;;;12.50;99.90;;;;;;4916725;29;20458;-70
2022/01/01 16:20:40;;;;;;;22.67;12.90;;;12.50;99.90;;;;;;4917325;29;21052;-69
2022/01/01 16:23:08;;;;;;;27.23;15.30;;;12.50;99.90;;;;;;4911408;29;20542;-69
2022/01/01 16:25:35;;;;;;;34.27;14.93;;;12.50;99.90;;;;;;4913838;29;20873;-70
2022/01/01 16:28:02;;;;;;;18.27;12.80;;;12.50;99.90;;;;;;4916477;29;20998;-71
2022/01/01 16:30:41;;;;;;;19.87;13.23;;;12.50;99.90;;;;;;4901890;29;20523;-70
2022/01/01 16:33:12;;;;;;;24.73;13.97;;;12.50;99.90;;;;;;4904072;29;20481;-70
2022/01/01 16:35:45;;;;;;;22.07;13.40;;;12.50;99.90;;;;;;4917259;29;20478;-69
2022/01/01 16:38:12;;;;;;;23.63;13.67;;;12.50;99.90;;;;;;4912472;29;20467;-70
2022/01/01 16:40:51;;;;;;;18.50;12.63;;;12.50;99.90;;;;;;4916721;29;20537;-70
2022/01/01 16:43:19;;;;;;;23.83;14.10;;;12.40;99.90;;;;;;4912954;29;20469;-71
2022/01/01 16:45:52;;;;;;;17.80;12.10;;;12.40;99.90;;;;;;4908742;29;20629;-69
2022/01/01 16:48:22;;;;;;;19.23;12.20;;;12.40;99.90;;;;;;4917242;29;20466;-69
2022/01/01 16:50:56;;;;;;;17.23;12.77;;;12.50;99.90;;;;;;4916337;29;20509;-70
2022/01/01 16:53:24;;;;;;;21.73;11.23;;;12.50;99.90;;;;;;4916826;29;20589;-72
2022/01/01 16:55:55;;;;;;;21.13;12.57;;;12.50;99.90;;;;;;4916370;29;20466;-70
2022/01/01 16:58:25;;;;;;;15.40;11.97;;;12.50;99.90;;;;;;4916526;29;20505;-69
2022/01/01 17:00:54;;;;;;;15.23;11.30;;;12.50;99.90;;;;;;4915492;29;21085;-69
2022/01/01 17:03:34;;;;;;;14.10;10.90;;;12.50;99.90;;;;;;4914574;29;20463;-70
2022/01/01 17:06:04;;;;;;;13.87;10.03;;;12.50;99.90;;;;;;4911397;29;20982;-70
2022/01/01 17:08:31;;;;;;;16.27;11.03;;;12.50;99.90;;;;;;4914365;29;20551;-70
2022/01/01 17:10:58;;;;;;;14.23;9.67;;;12.50;99.90;;;;;;4915770;29;20489;-69
2022/01/01 17:13:25;;;;;;;16.50;10.20;;;12.50;99.90;;;;;;4916153;29;20537;-70
2022/01/01 17:16:01;;;;;;;17.53;9.60;;;12.50;99.90;;;;;;4915977;29;20469;-69
2022/01/01 17:18:42;;;;;;;15.60;9.73;;;12.50;99.90;;;;;;4916169;29;20526;-69
2022/01/01 17:21:15;;;;;;;15.33;9.10;;;12.50;99.90;;;;;;4915447;29;20549;-70
2022/01/01 17:24:00;;;;;;;16.57;8.80;;;12.50;99.90;;;;;;4913832;29;20463;-70
2022/01/01 17:26:29;;;;;;;10.33;7.73;;;12.50;99.90;;;;;;4915753;29;20894;-69
2022/01/01 17:29:01;;;;;;;19.50;8.57;;;12.50;99.90;;;;;;4915992;29;20467;-72
2022/01/01 17:31:31;;;;;;;14.23;8.97;;;12.50;99.90;;;;;;4914225;29;20490;-70
2022/01/01 17:34:29;;;;;;;14.20;8.53;;;12.50;99.90;;;;;;4901393;29;20854;-69
2022/01/01 17:37:07;;;;;;;9.30;7.83;;;12.50;99.90;;;;;;4909297;29;21048;-71
2022/01/01 17:39:58;;;;;;;10.20;7.23;;;12.60;99.90;;;;;;4914064;29;20501;-71
2022/01/01 17:42:30;;;;;;;19.43;7.70;;;12.60;99.90;;;;;;4915710;29;20482;-71
2022/01/01 17:44:58;;;;;;;10.00;7.27;;;12.60;99.90;;;;;;4915024;29;20490;-71